Flight Track Log - Related Links

Times and Time Zones

All times are in EDT time to prevent confusion due to time zone crossing. See the GPD638 flight status page for this flight to view local times or setup timezone preferences in your user account.

Time Position Orientation Groundspeed Altitude Reporting Facility
EDT Latitude Longitude Course Direction KTS MPH feet Rate Location/Type
Tue 04:48:47 PM 38.9500 -77.5000 57° Northeast 128 147 1,700  Level Potomac TRACON
Tue 04:49:41 PM 38.9667 -77.5500 293° West 164 189 2,500 1,211 Climbing Potomac TRACON
Tue 04:50:41 PM 39.0167 -77.5667 345° North 198 228 4,000 1,600 Climbing Potomac TRACON
Tue 04:51:41 PM 39.0667 -77.5667 360° North 178 205 5,700 1,550 Climbing Potomac TRACON
Tue 04:52:41 PM 39.1000 -77.5000 57° Northeast 196 226 7,100 1,450 Climbing Potomac TRACON
Tue 04:53:41 PM 39.1167 -77.4500 67° East 198 228 8,600 950 Climbing Potomac TRACON
Tue 04:54:00 PM 39.1669 -77.2161 57° Northeast  Level FlightAware Approximate
Tue 04:54:41 PM 39.1500 -77.3833 57° Northeast 223 257 9,000  Level Potomac TRACON
Tue 04:55:41 PM 39.2000 -77.3167 46° Northeast 233 268 9,800 1,150 Climbing Potomac TRACON
Tue 04:56:41 PM 39.2333 -77.2500 57° Northeast 208 239 11,300 1,450 Climbing Potomac TRACON
Tue 04:57:41 PM 39.2500 -77.2000 67° East 200 230 12,700 850 Climbing Potomac TRACON
Tue 04:58:41 PM 39.3000 -77.1333 46° Northeast 229 264 13,000 100 Climbing Potomac TRACON
Tue 04:59:41 PM 39.3000 -77.0333 90° East 267 307 12,900 -50 Descending Potomac TRACON
Tue 05:00:41 PM 39.3000 -76.9333 90° East 271 312 12,900  Level Potomac TRACON
Tue 05:01:41 PM 39.3000 -76.8500 90° East 272 313 12,900  Level Potomac TRACON
Tue 05:02:41 PM 39.3000 -76.7500 90° East 276 318 12,900  Level Potomac TRACON
Tue 05:03:41 PM 39.3000 -76.6500 90° East 283 326 12,900  Level Potomac TRACON
Tue 05:04:41 PM 39.3000 -76.5500 90° East 273 314 12,900  Level Potomac TRACON
Tue 05:05:42 PM 39.3000 -76.4500 90° East 267 307 12,900 -50 Level Potomac TRACON
Tue 05:06:42 PM 39.3167 -76.3667 75° East 268 308 12,800 -450 Descending Potomac TRACON
Tue 05:07:42 PM 39.3500 -76.2833 63° Northeast 279 321 12,000 -400 Descending Potomac TRACON
Tue 05:08:42 PM 39.4000 -76.2000 52° Northeast 268 308 12,000  Level Potomac TRACON
Tue 05:10:23 PM 39.4667 -76.0500 60° Northeast 265 305 12,000  Level Philadelphia TRACON
Tue 05:11:23 PM 39.5000 -75.9833 57° Northeast 268 308 12,000  Level Philadelphia TRACON
Tue 05:12:17 PM 39.5333 -75.9000 63° Northeast 265 305 12,000  Level Philadelphia TRACON
Tue 05:13:17 PM 39.5833 -75.8333 46° Northeast 264 304 12,000  Level Philadelphia TRACON
Tue 05:14:17 PM 39.6167 -75.7500 63° Northeast 265 305 12,000  Level Philadelphia TRACON
Tue 05:15:17 PM 39.6500 -75.6667 63° Northeast 266 306 12,000  Level Philadelphia TRACON
Tue 05:16:17 PM 39.7000 -75.6000 46° Northeast 256 295 12,000  Level Philadelphia TRACON
Tue 05:17:17 PM 39.7667 -75.5833 11° North 254 292 12,000  Level Philadelphia TRACON
Tue 05:18:12 PM 39.8333 -75.5500 21° North 255 293 12,000  Level Philadelphia TRACON
Tue 05:19:11 PM 39.9000 -75.5333 11° North 254 292 12,000  Level Philadelphia TRACON
Tue 05:20:24 PM 39.9833 -75.4667 32° Northeast 250 288 12,000  Level Philadelphia TRACON
Tue 05:21:06 PM 40.0167 -75.4333 37° Northeast 248 285 12,000  Level Philadelphia TRACON
Tue 05:22:06 PM 40.0667 -75.3833 37° Northeast 252 290 12,000 -288 Level Philadelphia TRACON
Tue 05:23:11 PM 40.1333 -75.3167 37° Northeast 272 313 11,400 -476 Descending Philadelphia TRACON
Tue 05:24:12 PM 40.2000 -75.2833 21° North 273 314 11,000 -694 Descending Philadelphia TRACON
Tue 05:25:12 PM 40.2833 -75.2500 17° North 285 328 10,000 -1,100 Descending Philadelphia TRACON
Tue 05:26:12 PM 40.3500 -75.1833 37° Northeast 293 337 8,800 -1,024 Descending Philadelphia TRACON
Tue 05:28:02 PM 40.4333 -75.0333 54° Northeast 268 308 7,100 -706 Descending New York TRACON
Tue 05:29:02 PM 40.4667 -74.9500 62° Northeast 267 307 6,800 -750 Descending New York TRACON
Tue 05:30:02 PM 40.5167 -74.8833 45° Northeast 279 321 5,600 -1,250 Descending New York TRACON
Tue 05:31:02 PM 40.5500 -74.8000 62° Northeast 259 298 4,300 -714 Descending New York TRACON
Tue 05:32:08 PM 40.6000 -74.7333 45° Northeast 243 280 4,100 -100 Descending New York TRACON
Tue 05:33:02 PM 40.6500 -74.6833 37° Northeast 228 262 4,100 -53 Level New York TRACON
Tue 05:34:02 PM 40.7000 -74.6333 37° Northeast 242 278 4,000  Descending New York TRACON
Tue 05:35:08 PM 40.7667 -74.5667 37° Northeast 247 284 4,100 48 Climbing New York TRACON
Tue 05:36:08 PM 40.8167 -74.5167 37° Northeast 248 285 4,100  Level New York TRACON
Tue 05:37:08 PM 40.8667 -74.4500 45° Northeast 246 283 4,100 -250 Level New York TRACON
Tue 05:38:08 PM 40.9167 -74.4000 37° Northeast 240 276 3,600 -579 Descending New York TRACON
Tue 05:39:02 PM 40.9667 -74.3500 37° Northeast 227 261 3,000 -250 Descending New York TRACON
Tue 05:40:08 PM 40.9833 -74.2667 75° East 229 264 3,100 -143 Climbing New York TRACON
Tue 05:41:08 PM 41.0000 -74.1833 75° East 234 269 2,700 -550 Descending New York TRACON
Tue 05:42:08 PM 41.0167 -74.1167 72° East 217 250 2,000 -350 Descending New York TRACON
Tue 05:43:08 PM 40.9833 -74.0500 124° Southeast 204 235 2,000 -100 Level New York TRACON
Tue 05:44:08 PM 40.9500 -74.0500 180° South 141 162 1,800 -450 Descending New York TRACON
Tue 05:45:08 PM 40.9167 -74.0500 180° South 133 153 1,100 -650 Descending New York TRACON
Tue 05:46:08 PM 40.8833 -74.0500 180° South 120 138 500 -600 Descending New York TRACON

Login

Don't have an account? Register now (free) for customized features, flight alerts, and more!